sensor_id;sensor_type;location;lat;lon;timestamp;temperature;humidity
55329;DHT22;41205;44.264;19.884;2024-03-25T00:02:14;153.80;2252.80
55329;DHT22;41205;44.264;19.884;2024-03-25T00:04:40;153.80;2252.80
55329;DHT22;41205;44.264;19.884;2024-03-25T00:07:06;153.80;2252.80
55329;DHT22;41205;44.264;19.884;2024-03-25T00:09:32;153.90;2252.80
55329;DHT22;41205;44.264;19.884;2024-03-25T00:11:57;153.80;2252.80
55329;DHT22;41205;44.264;19.884;2024-03-25T00:14:23;153.80;2252.80
55329;DHT22;41205;44.264;19.884;2024-03-25T00:16:49;153.80;2252.80
55329;DHT22;41205;44.264;19.884;2024-03-25T00:19:16;153.80;2252.80
55329;DHT22;41205;44.264;19.884;2024-03-25T00:21:42;153.70;2252.80
55329;DHT22;41205;44.264;19.884;2024-03-25T00:24:08;153.60;2252.80
55329;DHT22;41205;44.264;19.884;2024-03-25T00:26:34;128.90;2252.80
55329;DHT22;41205;44.264;19.884;2024-03-25T00:29:00;128.90;2252.80
55329;DHT22;41205;44.264;19.884;2024-03-25T00:31:25;128.90;2252.80
55329;DHT22;41205;44.264;19.884;2024-03-25T00:33:51;128.90;2252.80
55329;DHT22;41205;44.264;19.884;2024-03-25T00:36:17;128.90;2252.80
55329;DHT22;41205;44.264;19.884;2024-03-25T00:38:43;128.70;2252.80
55329;DHT22;41205;44.264;19.884;2024-03-25T00:41:09;128.60;2252.80
55329;DHT22;41205;44.264;19.884;2024-03-25T00:43:35;128.50;2252.80
55329;DHT22;41205;44.264;19.884;2024-03-25T00:46:01;128.40;2252.80
55329;DHT22;41205;44.264;19.884;2024-03-25T00:48:27;128.00;2252.80
55329;DHT22;41205;44.264;19.884;2024-03-25T00:50:52;103.20;2227.20
55329;DHT22;41205;44.264;19.884;2024-03-25T00:53:18;103.10;2227.20
55329;DHT22;41205;44.264;19.884;2024-03-25T00:55:45;103.10;2227.20
55329;DHT22;41205;44.264;19.884;2024-03-25T00:58:10;103.00;2227.20
55329;DHT22;41205;44.264;19.884;2024-03-25T01:00:36;103.00;2227.20
55329;DHT22;41205;44.264;19.884;2024-03-25T01:03:02;103.00;2227.20
55329;DHT22;41205;44.264;19.884;2024-03-25T01:05:28;103.00;2227.20
55329;DHT22;41205;44.264;19.884;2024-03-25T01:07:54;103.00;2227.20
55329;DHT22;41205;44.264;19.884;2024-03-25T01:10:20;103.00;2227.20
55329;DHT22;41205;44.264;19.884;2024-03-25T01:12:46;103.00;2227.20
55329;DHT22;41205;44.264;19.884;2024-03-25T01:15:12;103.00;2227.20
55329;DHT22;41205;44.264;19.884;2024-03-25T01:17:38;103.00;2227.20
55329;DHT22;41205;44.264;19.884;2024-03-25T01:20:04;103.10;2227.20
55329;DHT22;41205;44.264;19.884;2024-03-25T01:22:34;103.00;2227.20
55329;DHT22;41205;44.264;19.884;2024-03-25T01:25:00;103.00;2227.20
55329;DHT22;41205;44.264;19.884;2024-03-25T01:27:26;103.00;2227.20
55329;DHT22;41205;44.264;19.884;2024-03-25T01:29:52;103.00;2227.20
55329;DHT22;41205;44.264;19.884;2024-03-25T01:32:18;102.90;2227.20
55329;DHT22;41205;44.264;19.884;2024-03-25T01:34:43;102.90;2227.20
55329;DHT22;41205;44.264;19.884;2024-03-25T01:37:09;103.00;2227.20
55329;DHT22;41205;44.264;19.884;2024-03-25T01:39:35;103.00;2227.20
55329;DHT22;41205;44.264;19.884;2024-03-25T01:42:03;103.00;2227.20
55329;DHT22;41205;44.264;19.884;2024-03-25T01:44:29;103.00;2227.20
55329;DHT22;41205;44.264;19.884;2024-03-25T01:46:55;103.10;2227.20
55329;DHT22;41205;44.264;19.884;2024-03-25T01:49:21;103.00;2227.20
55329;DHT22;41205;44.264;19.884;2024-03-25T01:51:47;103.00;2227.20
55329;DHT22;41205;44.264;19.884;2024-03-25T01:54:13;103.00;2227.20
55329;DHT22;41205;44.264;19.884;2024-03-25T01:56:42;103.00;2227.20
55329;DHT22;41205;44.264;19.884;2024-03-25T01:59:09;103.00;2227.20
55329;DHT22;41205;44.264;19.884;2024-03-25T02:01:36;103.00;2227.20
55329;DHT22;41205;44.264;19.884;2024-03-25T02:04:02;103.00;2227.20
55329;DHT22;41205;44.264;19.884;2024-03-25T02:06:30;103.00;2227.20
55329;DHT22;41205;44.264;19.884;2024-03-25T02:08:58;103.00;2227.20
55329;DHT22;41205;44.264;19.884;2024-03-25T02:11:24;102.90;2227.20
55329;DHT22;41205;44.264;19.884;2024-03-25T02:13:51;102.90;2227.20
55329;DHT22;41205;44.264;19.884;2024-03-25T02:16:17;102.90;2227.20
55329;DHT22;41205;44.264;19.884;2024-03-25T02:18:43;102.90;2227.20
55329;DHT22;41205;44.264;19.884;2024-03-25T02:21:09;102.80;2227.20
55329;DHT22;41205;44.264;19.884;2024-03-25T02:23:38;102.90;2227.20
55329;DHT22;41205;44.264;19.884;2024-03-25T02:26:04;102.90;2227.20
55329;DHT22;41205;44.264;19.884;2024-03-25T02:28:30;102.90;2227.20
55329;DHT22;41205;44.264;19.884;2024-03-25T02:30:56;102.90;2227.20
55329;DHT22;41205;44.264;19.884;2024-03-25T02:33:21;102.90;2227.20
55329;DHT22;41205;44.264;19.884;2024-03-25T02:35:47;102.90;2227.20
55329;DHT22;41205;44.264;19.884;2024-03-25T02:38:13;103.00;2227.20
55329;DHT22;41205;44.264;19.884;2024-03-25T02:40:50;103.00;2227.20
55329;DHT22;41205;44.264;19.884;2024-03-25T02:43:17;103.10;2227.20
55329;DHT22;41205;44.264;19.884;2024-03-25T02:45:45;103.10;2227.20
55329;DHT22;41205;44.264;19.884;2024-03-25T02:48:11;103.10;2227.20
55329;DHT22;41205;44.264;19.884;2024-03-25T02:50:36;103.10;2227.20
55329;DHT22;41205;44.264;19.884;2024-03-25T02:53:02;103.10;2227.20
55329;DHT22;41205;44.264;19.884;2024-03-25T02:55:28;103.10;2227.20
55329;DHT22;41205;44.264;19.884;2024-03-25T02:57:54;103.10;2227.20
55329;DHT22;41205;44.264;19.884;2024-03-25T03:00:20;103.00;2227.20
55329;DHT22;41205;44.264;19.884;2024-03-25T03:02:46;103.10;2227.20
55329;DHT22;41205;44.264;19.884;2024-03-25T03:05:12;103.10;2227.20
55329;DHT22;41205;44.264;19.884;2024-03-25T03:07:37;103.20;2227.20
55329;DHT22;41205;44.264;19.884;2024-03-25T03:10:03;103.20;2227.20
55329;DHT22;41205;44.264;19.884;2024-03-25T03:12:29;103.10;2227.20
55329;DHT22;41205;44.264;19.884;2024-03-25T03:14:55;103.10;2227.20
55329;DHT22;41205;44.264;19.884;2024-03-25T03:17:21;103.10;2227.20
55329;DHT22;41205;44.264;19.884;2024-03-25T03:19:47;103.10;2227.20
55329;DHT22;41205;44.264;19.884;2024-03-25T03:22:13;102.90;2227.20
55329;DHT22;41205;44.264;19.884;2024-03-25T03:24:38;103.10;2227.20
55329;DHT22;41205;44.264;19.884;2024-03-25T03:27:04;103.00;2227.20
55329;DHT22;41205;44.264;19.884;2024-03-25T03:29:30;103.00;2227.20
55329;DHT22;41205;44.264;19.884;2024-03-25T03:31:56;103.10;2227.20
55329;DHT22;41205;44.264;19.884;2024-03-25T03:34:22;103.00;2227.20
55329;DHT22;41205;44.264;19.884;2024-03-25T03:36:48;103.00;2227.20
55329;DHT22;41205;44.264;19.884;2024-03-25T03:39:15;103.00;2227.20
55329;DHT22;41205;44.264;19.884;2024-03-25T03:41:41;103.00;2227.20
55329;DHT22;41205;44.264;19.884;2024-03-25T03:44:07;103.00;2227.20
55329;DHT22;41205;44.264;19.884;2024-03-25T03:46:34;103.00;2227.20
55329;DHT22;41205;44.264;19.884;2024-03-25T03:49:00;103.00;2227.20
55329;DHT22;41205;44.264;19.884;2024-03-25T03:51:26;103.00;2227.20
55329;DHT22;41205;44.264;19.884;2024-03-25T03:53:52;103.00;2227.20
55329;DHT22;41205;44.264;19.884;2024-03-25T03:56:18;103.10;2227.20
55329;DHT22;41205;44.264;19.884;2024-03-25T03:58:44;103.10;2227.20
55329;DHT22;41205;44.264;19.884;2024-03-25T04:01:19;103.20;2227.20
55329;DHT22;41205;44.264;19.884;2024-03-25T04:03:45;103.30;2227.20
55329;DHT22;41205;44.264;19.884;2024-03-25T04:06:12;103.30;2227.20
55329;DHT22;41205;44.264;19.884;2024-03-25T04:08:39;128.00;2252.80
55329;DHT22;41205;44.264;19.884;2024-03-25T04:11:05;128.00;2252.80
55329;DHT22;41205;44.264;19.884;2024-03-25T04:13:35;128.00;2252.80
55329;DHT22;41205;44.264;19.884;2024-03-25T04:16:03;128.10;2252.80
55329;DHT22;41205;44.264;19.884;2024-03-25T04:18:30;128.10;2252.80
55329;DHT22;41205;44.264;19.884;2024-03-25T04:20:56;128.20;2252.80
55329;DHT22;41205;44.264;19.884;2024-03-25T04:23:22;128.20;2252.80
55329;DHT22;41205;44.264;19.884;2024-03-25T04:25:49;128.30;2252.80
55329;DHT22;41205;44.264;19.884;2024-03-25T04:28:15;128.30;2252.80
55329;DHT22;41205;44.264;19.884;2024-03-25T04:30:41;128.20;2252.80
55329;DHT22;41205;44.264;19.884;2024-03-25T04:33:07;128.10;2252.80
55329;DHT22;41205;44.264;19.884;2024-03-25T04:35:34;128.10;2252.80
55329;DHT22;41205;44.264;19.884;2024-03-25T04:37:59;128.10;2252.80
55329;DHT22;41205;44.264;19.884;2024-03-25T04:40:25;128.10;2252.80
55329;DHT22;41205;44.264;19.884;2024-03-25T04:42:51;128.10;2252.80
55329;DHT22;41205;44.264;19.884;2024-03-25T04:45:17;128.20;2252.80
55329;DHT22;41205;44.264;19.884;2024-03-25T04:47:43;128.20;2252.80
55329;DHT22;41205;44.264;19.884;2024-03-25T04:50:10;128.20;2252.80
55329;DHT22;41205;44.264;19.884;2024-03-25T04:52:35;128.20;2252.80
55329;DHT22;41205;44.264;19.884;2024-03-25T04:55:01;128.00;2252.80
55329;DHT22;41205;44.264;19.884;2024-03-25T04:57:27;128.00;2252.80
55329;DHT22;41205;44.264;19.884;2024-03-25T04:59:53;128.00;2252.80
55329;DHT22;41205;44.264;19.884;2024-03-25T05:02:19;128.20;2252.80
55329;DHT22;41205;44.264;19.884;2024-03-25T05:04:45;128.10;2252.80
55329;DHT22;41205;44.264;19.884;2024-03-25T05:07:10;128.00;2252.80
55329;DHT22;41205;44.264;19.884;2024-03-25T05:09:36;128.10;2252.80
55329;DHT22;41205;44.264;19.884;2024-03-25T05:12:02;128.10;2252.80
55329;DHT22;41205;44.264;19.884;2024-03-25T05:14:28;103.30;2227.20
55329;DHT22;41205;44.264;19.884;2024-03-25T05:16:54;103.30;2227.20
55329;DHT22;41205;44.264;19.884;2024-03-25T05:19:20;103.30;2227.20
55329;DHT22;41205;44.264;19.884;2024-03-25T05:21:45;103.30;2227.20
55329;DHT22;41205;44.264;19.884;2024-03-25T05:24:11;103.30;2227.20
55329;DHT22;41205;44.264;19.884;2024-03-25T05:26:37;128.00;2252.80
55329;DHT22;41205;44.264;19.884;2024-03-25T05:29:03;128.10;2252.80
55329;DHT22;41205;44.264;19.884;2024-03-25T05:31:29;128.20;2252.80
55329;DHT22;41205;44.264;19.884;2024-03-25T05:33:56;128.20;2252.80
55329;DHT22;41205;44.264;19.884;2024-03-25T05:36:22;128.20;2252.80
55329;DHT22;41205;44.264;19.884;2024-03-25T05:38:47;128.30;2252.80
55329;DHT22;41205;44.264;19.884;2024-03-25T05:41:13;128.40;2252.80
55329;DHT22;41205;44.264;19.884;2024-03-25T05:43:39;128.40;2252.80
55329;DHT22;41205;44.264;19.884;2024-03-25T05:46:05;128.40;2252.80
55329;DHT22;41205;44.264;19.884;2024-03-25T05:48:31;128.60;2252.80
55329;DHT22;41205;44.264;19.884;2024-03-25T05:51:04;128.80;2252.80
55329;DHT22;41205;44.264;19.884;2024-03-25T05:53:33;153.60;2252.80
55329;DHT22;41205;44.264;19.884;2024-03-25T05:55:59;153.80;2252.80
55329;DHT22;41205;44.264;19.884;2024-03-25T05:58:25;153.90;2252.80
55329;DHT22;41205;44.264;19.884;2024-03-25T06:00:52;154.10;2252.80
55329;DHT22;41205;44.264;19.884;2024-03-25T06:03:21;154.10;2252.80
55329;DHT22;41205;44.264;19.884;2024-03-25T06:05:47;154.30;2252.80
55329;DHT22;41205;44.264;19.884;2024-03-25T06:08:14;154.40;2252.80
55329;DHT22;41205;44.264;19.884;2024-03-25T06:10:53;154.50;2252.80
55329;DHT22;41205;44.264;19.884;2024-03-25T06:13:19;154.50;2252.80
55329;DHT22;41205;44.264;19.884;2024-03-25T06:15:45;179.20;2252.80
55329;DHT22;41205;44.264;19.884;2024-03-25T06:18:11;179.30;2252.80
55329;DHT22;41205;44.264;19.884;2024-03-25T06:20:37;179.40;2252.80
55329;DHT22;41205;44.264;19.884;2024-03-25T06:23:03;179.60;2252.80
55329;DHT22;41205;44.264;19.884;2024-03-25T06:25:29;180.00;2252.80
55329;DHT22;41205;44.264;19.884;2024-03-25T06:27:56;204.80;2252.80
55329;DHT22;41205;44.264;19.884;2024-03-25T06:30:21;205.00;2252.80
55329;DHT22;41205;44.264;19.884;2024-03-25T06:33:05;205.20;2252.80
55329;DHT22;41205;44.264;19.884;2024-03-25T06:35:50;205.50;2252.80
55329;DHT22;41205;44.264;19.884;2024-03-25T06:38:17;230.50;2252.80
55329;DHT22;41205;44.264;19.884;2024-03-25T06:40:45;230.90;2252.80
55329;DHT22;41205;44.264;19.884;2024-03-25T06:43:11;230.90;2252.80
55329;DHT22;41205;44.264;19.884;2024-03-25T06:45:37;231.10;2252.80
55329;DHT22;41205;44.264;19.884;2024-03-25T06:48:03;308.00;2304.00
55329;DHT22;41205;44.264;19.884;2024-03-25T06:50:29;410.20;2176.00
55329;DHT22;41205;44.264;19.884;2024-03-25T06:52:55;486.50;1894.40
55329;DHT22;41205;44.264;19.884;2024-03-25T06:55:21;538.10;1664.00
55329;DHT22;41205;44.264;19.884;2024-03-25T06:57:50;589.10;1561.60
55329;DHT22;41205;44.264;19.884;2024-03-25T07:00:16;614.60;1459.20
55329;DHT22;41205;44.264;19.884;2024-03-25T07:02:42;640.20;1382.40
55329;DHT22;41205;44.264;19.884;2024-03-25T07:05:08;665.70;1356.80
55329;DHT22;41205;44.264;19.884;2024-03-25T07:07:34;666.50;1331.20
55329;DHT22;41205;44.264;19.884;2024-03-25T07:10:01;666.50;1331.20
55329;DHT22;41205;44.264;19.884;2024-03-25T07:12:27;665.90;1356.80
55329;DHT22;41205;44.264;19.884;2024-03-25T07:14:54;589.00;1484.80
55329;DHT22;41205;44.264;19.884;2024-03-25T07:17:20;537.80;1561.60
55329;DHT22;41205;44.264;19.884;2024-03-25T07:19:47;486.90;1638.40
55329;DHT22;41205;44.264;19.884;2024-03-25T07:22:13;436.00;1715.20
55329;DHT22;41205;44.264;19.884;2024-03-25T07:24:39;410.20;1843.20
55329;DHT22;41205;44.264;19.884;2024-03-25T07:27:05;384.60;1868.80
55329;DHT22;41205;44.264;19.884;2024-03-25T07:29:33;359.20;1920.00
55329;DHT22;41205;44.264;19.884;2024-03-25T07:31:58;358.40;1996.80
55329;DHT22;41205;44.264;19.884;2024-03-25T07:34:24;333.40;2048.00
55329;DHT22;41205;44.264;19.884;2024-03-25T07:36:51;333.10;2099.20
55329;DHT22;41205;44.264;19.884;2024-03-25T07:39:17;333.10;2124.80
55329;DHT22;41205;44.264;19.884;2024-03-25T07:41:43;333.00;2150.40
55329;DHT22;41205;44.264;19.884;2024-03-25T07:44:09;332.80;2150.40
55329;DHT22;41205;44.264;19.884;2024-03-25T07:46:34;308.00;2150.40
55329;DHT22;41205;44.264;19.884;2024-03-25T07:49:00;308.00;2176.00
55329;DHT22;41205;44.264;19.884;2024-03-25T07:51:26;307.90;2176.00
55329;DHT22;41205;44.264;19.884;2024-03-25T07:53:52;308.00;2201.60
55329;DHT22;41205;44.264;19.884;2024-03-25T07:56:18;333.20;2150.40
55329;DHT22;41205;44.264;19.884;2024-03-25T07:58:44;461.20;1868.80
55329;DHT22;41205;44.264;19.884;2024-03-25T08:01:10;486.40;1740.80
55329;DHT22;41205;44.264;19.884;2024-03-25T08:03:35;538.10;1638.40
55329;DHT22;41205;44.264;19.884;2024-03-25T08:06:01;614.60;1484.80
55329;DHT22;41205;44.264;19.884;2024-03-25T08:08:28;666.00;1382.40
55329;DHT22;41205;44.264;19.884;2024-03-25T08:10:54;717.20;1280.00
55329;DHT22;41205;44.264;19.884;2024-03-25T08:13:21;743.10;1228.80
55329;DHT22;41205;44.264;19.884;2024-03-25T08:15:47;768.00;1177.60
55329;DHT22;41205;44.264;19.884;2024-03-25T08:18:13;742.80;1177.60
55329;DHT22;41205;44.264;19.884;2024-03-25T08:20:39;666.50;1228.80
55329;DHT22;41205;44.264;19.884;2024-03-25T08:23:05;640.40;1280.00
55329;DHT22;41205;44.264;19.884;2024-03-25T08:25:31;589.10;1382.40
55329;DHT22;41205;44.264;19.884;2024-03-25T08:27:57;614.90;1331.20
55329;DHT22;41205;44.264;19.884;2024-03-25T08:30:24;615.10;1305.60
55329;DHT22;41205;44.264;19.884;2024-03-25T08:32:50;691.70;1203.20
55329;DHT22;41205;44.264;19.884;2024-03-25T08:35:16;742.60;1177.60
55329;DHT22;41205;44.264;19.884;2024-03-25T08:37:42;768.10;1126.40
55329;DHT22;41205;44.264;19.884;2024-03-25T08:40:08;794.00;1100.80
55329;DHT22;41205;44.264;19.884;2024-03-25T08:42:35;819.90;1049.60
55329;DHT22;41205;44.264;19.884;2024-03-25T08:45:01;845.10;1049.60
55329;DHT22;41205;44.264;19.884;2024-03-25T08:47:26;845.40;1049.60
55329;DHT22;41205;44.264;19.884;2024-03-25T08:49:52;870.50;998.40
55329;DHT22;41205;44.264;19.884;2024-03-25T08:52:18;844.90;1024.00
55329;DHT22;41205;44.264;19.884;2024-03-25T08:54:44;820.10;1024.00
55329;DHT22;41205;44.264;19.884;2024-03-25T08:57:10;793.60;1075.20
55329;DHT22;41205;44.264;19.884;2024-03-25T08:59:36;742.90;1100.80
55329;DHT22;41205;44.264;19.884;2024-03-25T09:02:02;692.00;1126.40
55329;DHT22;41205;44.264;19.884;2024-03-25T09:04:27;665.60;1203.20
55329;DHT22;41205;44.264;19.884;2024-03-25T09:06:53;614.90;1280.00
55329;DHT22;41205;44.264;19.884;2024-03-25T09:09:19;563.60;1356.80
55329;DHT22;41205;44.264;19.884;2024-03-25T09:12:04;538.30;1356.80
55329;DHT22;41205;44.264;19.884;2024-03-25T09:14:29;537.70;1382.40
55329;DHT22;41205;44.264;19.884;2024-03-25T09:16:55;512.70;1433.60
55329;DHT22;41205;44.264;19.884;2024-03-25T09:19:21;512.20;1433.60
55329;DHT22;41205;44.264;19.884;2024-03-25T09:21:47;487.00;1408.00
55329;DHT22;41205;44.264;19.884;2024-03-25T09:24:13;486.80;1408.00
55329;DHT22;41205;44.264;19.884;2024-03-25T09:26:39;486.70;1459.20
55329;DHT22;41205;44.264;19.884;2024-03-25T09:29:04;486.40;1484.80
55329;DHT22;41205;44.264;19.884;2024-03-25T09:31:30;461.40;1510.40
55329;DHT22;41205;44.264;19.884;2024-03-25T09:33:56;461.00;1510.40
55329;DHT22;41205;44.264;19.884;2024-03-25T09:36:22;460.80;1536.00
55329;DHT22;41205;44.264;19.884;2024-03-25T09:38:48;436.10;1484.80
55329;DHT22;41205;44.264;19.884;2024-03-25T09:41:14;435.80;1484.80
55329;DHT22;41205;44.264;19.884;2024-03-25T09:43:43;410.50;1484.80
55329;DHT22;41205;44.264;19.884;2024-03-25T09:46:09;410.20;1536.00
55329;DHT22;41205;44.264;19.884;2024-03-25T09:48:36;409.90;1561.60
55329;DHT22;41205;44.264;19.884;2024-03-25T09:51:06;409.90;1561.60
55329;DHT22;41205;44.264;19.884;2024-03-25T09:53:32;410.00;1612.80
55329;DHT22;41205;44.264;19.884;2024-03-25T09:55:58;410.10;1587.20
55329;DHT22;41205;44.264;19.884;2024-03-25T09:58:28;409.90;1612.80
55329;DHT22;41205;44.264;19.884;2024-03-25T10:00:54;409.90;1612.80
55329;DHT22;41205;44.264;19.884;2024-03-25T10:03:21;409.70;1638.40
55329;DHT22;41205;44.264;19.884;2024-03-25T10:05:47;409.70;1612.80
55329;DHT22;41205;44.264;19.884;2024-03-25T10:08:13;409.70;1664.00
55329;DHT22;41205;44.264;19.884;2024-03-25T10:10:39;409.90;1587.20
55329;DHT22;41205;44.264;19.884;2024-03-25T10:13:05;409.90;1612.80
55329;DHT22;41205;44.264;19.884;2024-03-25T10:15:32;409.80;1587.20
55329;DHT22;41205;44.264;19.884;2024-03-25T10:17:58;409.90;1612.80
55329;DHT22;41205;44.264;19.884;2024-03-25T10:20:24;409.90;1587.20
55329;DHT22;41205;44.264;19.884;2024-03-25T10:22:51;410.20;1612.80
55329;DHT22;41205;44.264;19.884;2024-03-25T10:25:25;410.30;1612.80
55329;DHT22;41205;44.264;19.884;2024-03-25T10:27:58;410.20;1536.00
55329;DHT22;41205;44.264;19.884;2024-03-25T10:30:24;410.00;1536.00
55329;DHT22;41205;44.264;19.884;2024-03-25T10:33:04;410.00;1561.60
55329;DHT22;41205;44.264;19.884;2024-03-25T10:35:33;409.90;1638.40
55329;DHT22;41205;44.264;19.884;2024-03-25T10:38:01;409.90;1587.20
55329;DHT22;41205;44.264;19.884;2024-03-25T10:40:33;410.00;1561.60
55329;DHT22;41205;44.264;19.884;2024-03-25T10:45:30;410.50;1510.40
55329;DHT22;41205;44.264;19.884;2024-03-25T10:48:11;410.40;1510.40
55329;DHT22;41205;44.264;19.884;2024-03-25T10:50:39;410.40;1561.60
55329;DHT22;41205;44.264;19.884;2024-03-25T10:53:07;410.30;1510.40
55329;DHT22;41205;44.264;19.884;2024-03-25T10:55:35;410.30;1510.40
55329;DHT22;41205;44.264;19.884;2024-03-25T10:58:02;410.20;1510.40
55329;DHT22;41205;44.264;19.884;2024-03-25T11:00:30;409.90;1536.00
55329;DHT22;41205;44.264;19.884;2024-03-25T11:02:56;410.00;1536.00
55329;DHT22;41205;44.264;19.884;2024-03-25T11:05:23;410.20;1536.00
55329;DHT22;41205;44.264;19.884;2024-03-25T11:07:49;410.30;1536.00
55329;DHT22;41205;44.264;19.884;2024-03-25T11:10:15;435.20;1536.00
55329;DHT22;41205;44.264;19.884;2024-03-25T11:12:42;435.30;1510.40
55329;DHT22;41205;44.264;19.884;2024-03-25T11:15:14;435.50;1433.60
55329;DHT22;41205;44.264;19.884;2024-03-25T11:17:49;435.40;1459.20
55329;DHT22;41205;44.264;19.884;2024-03-25T11:20:17;435.60;1510.40
55329;DHT22;41205;44.264;19.884;2024-03-25T11:22:53;435.70;1484.80
55329;DHT22;41205;44.264;19.884;2024-03-25T11:25:20;435.60;1484.80
55329;DHT22;41205;44.264;19.884;2024-03-25T11:27:47;435.60;1459.20
55329;DHT22;41205;44.264;19.884;2024-03-25T11:30:16;435.60;1433.60
55329;DHT22;41205;44.264;19.884;2024-03-25T11:32:54;435.80;1408.00
55329;DHT22;41205;44.264;19.884;2024-03-25T11:35:21;435.80;1433.60
55329;DHT22;41205;44.264;19.884;2024-03-25T11:37:48;435.70;1433.60
55329;DHT22;41205;44.264;19.884;2024-03-25T11:40:16;435.50;1433.60
55329;DHT22;41205;44.264;19.884;2024-03-25T11:42:42;435.60;1484.80
55329;DHT22;41205;44.264;19.884;2024-03-25T11:45:16;435.60;1484.80
55329;DHT22;41205;44.264;19.884;2024-03-25T11:47:42;435.60;1459.20
55329;DHT22;41205;44.264;19.884;2024-03-25T11:50:09;435.50;1510.40
55329;DHT22;41205;44.264;19.884;2024-03-25T11:52:35;435.50;1382.40
55329;DHT22;41205;44.264;19.884;2024-03-25T11:55:01;435.60;1510.40
55329;DHT22;41205;44.264;19.884;2024-03-25T11:57:28;435.70;1433.60
55329;DHT22;41205;44.264;19.884;2024-03-25T11:59:54;435.70;1459.20
55329;DHT22;41205;44.264;19.884;2024-03-25T12:02:20;435.80;1433.60
55329;DHT22;41205;44.264;19.884;2024-03-25T12:04:48;435.70;1382.40
55329;DHT22;41205;44.264;19.884;2024-03-25T12:07:14;435.90;1510.40
55329;DHT22;41205;44.264;19.884;2024-03-25T12:09:41;435.60;1459.20
55329;DHT22;41205;44.264;19.884;2024-03-25T12:12:25;435.50;1433.60
55329;DHT22;41205;44.264;19.884;2024-03-25T12:14:52;435.70;1408.00
55329;DHT22;41205;44.264;19.884;2024-03-25T12:17:19;435.70;1408.00
55329;DHT22;41205;44.264;19.884;2024-03-25T12:20:06;435.60;1408.00
55329;DHT22;41205;44.264;19.884;2024-03-25T12:22:36;435.60;1408.00
55329;DHT22;41205;44.264;19.884;2024-03-25T12:25:04;435.60;1382.40
55329;DHT22;41205;44.264;19.884;2024-03-25T12:27:40;435.70;1459.20
55329;DHT22;41205;44.264;19.884;2024-03-25T12:30:10;435.70;1382.40
55329;DHT22;41205;44.264;19.884;2024-03-25T12:35:08;435.90;1382.40
55329;DHT22;41205;44.264;19.884;2024-03-25T12:37:37;435.90;1382.40
55329;DHT22;41205;44.264;19.884;2024-03-25T12:40:04;435.90;1331.20
55329;DHT22;41205;44.264;19.884;2024-03-25T12:42:32;435.80;1331.20
55329;DHT22;41205;44.264;19.884;2024-03-25T12:44:58;435.90;1356.80
55329;DHT22;41205;44.264;19.884;2024-03-25T12:47:24;436.10;1356.80
55329;DHT22;41205;44.264;19.884;2024-03-25T12:49:50;436.10;1382.40
55329;DHT22;41205;44.264;19.884;2024-03-25T12:52:16;460.80;1382.40
55329;DHT22;41205;44.264;19.884;2024-03-25T12:54:41;435.90;1382.40
55329;DHT22;41205;44.264;19.884;2024-03-25T12:57:08;435.90;1408.00
55329;DHT22;41205;44.264;19.884;2024-03-25T12:59:34;435.80;1433.60
55329;DHT22;41205;44.264;19.884;2024-03-25T13:02:00;435.90;1433.60
55329;DHT22;41205;44.264;19.884;2024-03-25T13:04:26;435.70;1408.00
55329;DHT22;41205;44.264;19.884;2024-03-25T13:06:52;435.60;1408.00
55329;DHT22;41205;44.264;19.884;2024-03-25T13:09:18;435.60;1382.40
55329;DHT22;41205;44.264;19.884;2024-03-25T13:11:45;435.60;1408.00
55329;DHT22;41205;44.264;19.884;2024-03-25T13:14:12;435.40;1408.00
55329;DHT22;41205;44.264;19.884;2024-03-25T13:16:41;435.40;1382.40
55329;DHT22;41205;44.264;19.884;2024-03-25T13:19:07;435.50;1382.40
55329;DHT22;41205;44.264;19.884;2024-03-25T13:21:33;435.40;1433.60
55329;DHT22;41205;44.264;19.884;2024-03-25T13:23:59;435.30;1433.60
55329;DHT22;41205;44.264;19.884;2024-03-25T13:26:25;435.40;1433.60
55329;DHT22;41205;44.264;19.884;2024-03-25T13:28:53;435.30;1433.60
55329;DHT22;41205;44.264;19.884;2024-03-25T13:31:19;435.20;1433.60
55329;DHT22;41205;44.264;19.884;2024-03-25T13:33:45;435.20;1459.20
55329;DHT22;41205;44.264;19.884;2024-03-25T13:36:11;410.50;1433.60
55329;DHT22;41205;44.264;19.884;2024-03-25T13:38:37;410.30;1433.60
55329;DHT22;41205;44.264;19.884;2024-03-25T13:41:04;410.20;1510.40
55329;DHT22;41205;44.264;19.884;2024-03-25T13:43:31;409.80;1510.40
55329;DHT22;41205;44.264;19.884;2024-03-25T13:45:57;409.80;1510.40
55329;DHT22;41205;44.264;19.884;2024-03-25T13:48:23;409.60;1510.40
55329;DHT22;41205;44.264;19.884;2024-03-25T13:50:49;384.90;1484.80
55329;DHT22;41205;44.264;19.884;2024-03-25T13:53:15;384.80;1484.80
55329;DHT22;41205;44.264;19.884;2024-03-25T13:55:41;384.80;1484.80
55329;DHT22;41205;44.264;19.884;2024-03-25T13:58:07;384.70;1510.40
55329;DHT22;41205;44.264;19.884;2024-03-25T14:00:34;384.50;1510.40
55329;DHT22;41205;44.264;19.884;2024-03-25T14:03:02;384.50;1510.40
55329;DHT22;41205;44.264;19.884;2024-03-25T14:05:28;384.30;1510.40
55329;DHT22;41205;44.264;19.884;2024-03-25T14:07:54;384.30;1536.00
55329;DHT22;41205;44.264;19.884;2024-03-25T14:10:21;384.30;1536.00
55329;DHT22;41205;44.264;19.884;2024-03-25T14:12:47;384.30;1510.40
55329;DHT22;41205;44.264;19.884;2024-03-25T14:15:13;384.30;1536.00
55329;DHT22;41205;44.264;19.884;2024-03-25T14:17:38;384.30;1510.40
55329;DHT22;41205;44.264;19.884;2024-03-25T14:20:05;384.10;1587.20
55329;DHT22;41205;44.264;19.884;2024-03-25T14:22:32;384.20;1587.20
55329;DHT22;41205;44.264;19.884;2024-03-25T14:24:58;384.10;1561.60
55329;DHT22;41205;44.264;19.884;2024-03-25T14:27:25;384.10;1587.20
55329;DHT22;41205;44.264;19.884;2024-03-25T14:29:51;384.00;1561.60
55329;DHT22;41205;44.264;19.884;2024-03-25T14:32:20;384.00;1587.20
55329;DHT22;41205;44.264;19.884;2024-03-25T14:34:49;384.00;1561.60
55329;DHT22;41205;44.264;19.884;2024-03-25T14:37:15;384.00;1561.60
55329;DHT22;41205;44.264;19.884;2024-03-25T14:39:41;384.00;1561.60